sensor_id;sensor_type;location;lat;lon;timestamp;temperature;humidity
54126;DHT22;40360;52.992;6.796;2022-12-11T00:02:27;-1.00;99.90
54126;DHT22;40360;52.992;6.796;2022-12-11T00:04:53;-1.00;99.90
54126;DHT22;40360;52.992;6.796;2022-12-11T00:07:19;-1.00;99.90
54126;DHT22;40360;52.992;6.796;2022-12-11T00:09:45;-1.00;99.90
54126;DHT22;40360;52.992;6.796;2022-12-11T00:12:10;-1.00;99.90
54126;DHT22;40360;52.992;6.796;2022-12-11T00:14:37;-0.90;99.90
54126;DHT22;40360;52.992;6.796;2022-12-11T00:17:03;-0.90;99.90
54126;DHT22;40360;52.992;6.796;2022-12-11T00:19:28;-0.90;99.90
54126;DHT22;40360;52.992;6.796;2022-12-11T00:21:54;-0.80;99.90
54126;DHT22;40360;52.992;6.796;2022-12-11T00:24:20;-0.80;99.90
54126;DHT22;40360;52.992;6.796;2022-12-11T00:26:45;-0.80;99.90
54126;DHT22;40360;52.992;6.796;2022-12-11T00:29:11;-0.80;99.90
54126;DHT22;40360;52.992;6.796;2022-12-11T00:31:40;-0.70;99.90
54126;DHT22;40360;52.992;6.796;2022-12-11T00:34:06;-0.70;99.90
54126;DHT22;40360;52.992;6.796;2022-12-11T00:36:32;-0.70;99.90
54126;DHT22;40360;52.992;6.796;2022-12-11T00:38:58;-0.70;99.90
54126;DHT22;40360;52.992;6.796;2022-12-11T00:41:23;-0.70;99.90
54126;DHT22;40360;52.992;6.796;2022-12-11T00:43:49;-0.60;99.90
54126;DHT22;40360;52.992;6.796;2022-12-11T00:46:15;-0.60;99.90
54126;DHT22;40360;52.992;6.796;2022-12-11T00:48:41;-0.60;99.90
54126;DHT22;40360;52.992;6.796;2022-12-11T00:51:06;-0.60;99.90
54126;DHT22;40360;52.992;6.796;2022-12-11T00:53:32;-0.60;99.90
54126;DHT22;40360;52.992;6.796;2022-12-11T00:55:58;-0.60;99.90
54126;DHT22;40360;52.992;6.796;2022-12-11T00:58:23;-0.60;99.90
54126;DHT22;40360;52.992;6.796;2022-12-11T01:00:49;-0.60;99.90
54126;DHT22;40360;52.992;6.796;2022-12-11T01:03:16;-0.60;99.90
54126;DHT22;40360;52.992;6.796;2022-12-11T01:05:50;-0.60;99.90
54126;DHT22;40360;52.992;6.796;2022-12-11T01:08:16;-0.60;99.90
54126;DHT22;40360;52.992;6.796;2022-12-11T01:10:41;-0.60;99.90
54126;DHT22;40360;52.992;6.796;2022-12-11T01:13:07;-0.60;99.90
54126;DHT22;40360;52.992;6.796;2022-12-11T01:15:38;-0.60;99.90
54126;DHT22;40360;52.992;6.796;2022-12-11T01:18:04;-0.60;99.90
54126;DHT22;40360;52.992;6.796;2022-12-11T01:20:30;-0.50;99.90
54126;DHT22;40360;52.992;6.796;2022-12-11T01:22:57;-0.50;99.90
54126;DHT22;40360;52.992;6.796;2022-12-11T01:25:24;-0.50;99.90
54126;DHT22;40360;52.992;6.796;2022-12-11T01:27:51;-0.50;99.90
54126;DHT22;40360;52.992;6.796;2022-12-11T01:30:18;-0.50;99.90
54126;DHT22;40360;52.992;6.796;2022-12-11T01:32:44;-0.50;99.90
54126;DHT22;40360;52.992;6.796;2022-12-11T01:35:11;-0.50;99.90
54126;DHT22;40360;52.992;6.796;2022-12-11T01:37:36;-0.40;99.90
54126;DHT22;40360;52.992;6.796;2022-12-11T01:40:05;-0.40;99.90
54126;DHT22;40360;52.992;6.796;2022-12-11T01:42:31;-0.40;99.90
54126;DHT22;40360;52.992;6.796;2022-12-11T01:48:22;-0.40;99.90
54126;DHT22;40360;52.992;6.796;2022-12-11T01:50:50;-0.30;99.90
54126;DHT22;40360;52.992;6.796;2022-12-11T01:53:20;-0.30;99.90
54126;DHT22;40360;52.992;6.796;2022-12-11T01:55:48;-0.40;99.90
54126;DHT22;40360;52.992;6.796;2022-12-11T01:58:19;-0.40;99.90
54126;DHT22;40360;52.992;6.796;2022-12-11T02:00:46;-0.40;99.90
54126;DHT22;40360;52.992;6.796;2022-12-11T02:03:12;-0.30;99.90
54126;DHT22;40360;52.992;6.796;2022-12-11T02:05:38;-0.40;99.90
54126;DHT22;40360;52.992;6.796;2022-12-11T02:08:05;-0.30;99.90
54126;DHT22;40360;52.992;6.796;2022-12-11T02:10:55;-0.30;99.90
54126;DHT22;40360;52.992;6.796;2022-12-11T02:13:56;-0.30;99.90
54126;DHT22;40360;52.992;6.796;2022-12-11T02:16:53;-0.30;99.90
54126;DHT22;40360;52.992;6.796;2022-12-11T02:27:51;-0.20;99.90
54126;DHT22;40360;52.992;6.796;2022-12-11T02:30:21;-0.20;99.90
54126;DHT22;40360;52.992;6.796;2022-12-11T02:32:57;-0.20;99.90
54126;DHT22;40360;52.992;6.796;2022-12-11T02:35:33;-0.20;99.90
54126;DHT22;40360;52.992;6.796;2022-12-11T02:38:04;-0.10;99.90
54126;DHT22;40360;52.992;6.796;2022-12-11T02:40:34;-0.10;99.90
54126;DHT22;40360;52.992;6.796;2022-12-11T02:43:04;-0.10;99.90
54126;DHT22;40360;52.992;6.796;2022-12-11T02:45:31;-0.10;99.90
54126;DHT22;40360;52.992;6.796;2022-12-11T02:48:00;-0.10;99.90
54126;DHT22;40360;52.992;6.796;2022-12-11T02:50:27;-0.10;99.90
54126;DHT22;40360;52.992;6.796;2022-12-11T02:52:54;-0.10;99.90
54126;DHT22;40360;52.992;6.796;2022-12-11T02:55:21;-0.10;99.90
54126;DHT22;40360;52.992;6.796;2022-12-11T02:57:54;-0.10;99.90
54126;DHT22;40360;52.992;6.796;2022-12-11T03:00:21;-0.10;99.90
54126;DHT22;40360;52.992;6.796;2022-12-11T03:02:46;-0.10;99.90
54126;DHT22;40360;52.992;6.796;2022-12-11T03:05:13;-0.10;99.90
54126;DHT22;40360;52.992;6.796;2022-12-11T03:07:41;0.00;99.90
54126;DHT22;40360;52.992;6.796;2022-12-11T03:10:11;0.70;99.90
54126;DHT22;40360;52.992;6.796;2022-12-11T03:12:42;0.00;99.90
54126;DHT22;40360;52.992;6.796;2022-12-11T03:15:11;0.00;99.90
54126;DHT22;40360;52.992;6.796;2022-12-11T03:20:19;0.10;99.90
54126;DHT22;40360;52.992;6.796;2022-12-11T03:23:08;0.10;99.90
54126;DHT22;40360;52.992;6.796;2022-12-11T03:31:06;0.10;99.90
54126;DHT22;40360;52.992;6.796;2022-12-11T03:33:37;0.10;99.90
54126;DHT22;40360;52.992;6.796;2022-12-11T03:36:08;0.10;99.90
54126;DHT22;40360;52.992;6.796;2022-12-11T03:39:06;0.10;99.90
54126;DHT22;40360;52.992;6.796;2022-12-11T03:41:35;0.10;99.90
54126;DHT22;40360;52.992;6.796;2022-12-11T03:44:01;0.20;99.90
54126;DHT22;40360;52.992;6.796;2022-12-11T03:46:31;0.20;99.90
54126;DHT22;40360;52.992;6.796;2022-12-11T03:49:02;0.20;99.90
54126;DHT22;40360;52.992;6.796;2022-12-11T03:51:31;0.20;99.90
54126;DHT22;40360;52.992;6.796;2022-12-11T03:53:58;0.20;99.90
54126;DHT22;40360;52.992;6.796;2022-12-11T03:56:26;0.20;99.90
54126;DHT22;40360;52.992;6.796;2022-12-11T03:58:52;0.20;99.90
54126;DHT22;40360;52.992;6.796;2022-12-11T04:01:18;0.20;99.90
54126;DHT22;40360;52.992;6.796;2022-12-11T04:03:44;0.20;99.90
54126;DHT22;40360;52.992;6.796;2022-12-11T04:06:09;0.20;99.90
54126;DHT22;40360;52.992;6.796;2022-12-11T04:08:35;0.20;99.90
54126;DHT22;40360;52.992;6.796;2022-12-11T04:11:02;0.20;99.90
54126;DHT22;40360;52.992;6.796;2022-12-11T04:13:46;0.20;99.90
54126;DHT22;40360;52.992;6.796;2022-12-11T04:16:32;0.20;99.90
54126;DHT22;40360;52.992;6.796;2022-12-11T04:18:58;0.20;99.90
54126;DHT22;40360;52.992;6.796;2022-12-11T04:21:42;0.20;99.90
54126;DHT22;40360;52.992;6.796;2022-12-11T04:24:26;0.20;99.90
54126;DHT22;40360;52.992;6.796;2022-12-11T04:26:52;0.20;99.90
54126;DHT22;40360;52.992;6.796;2022-12-11T04:29:17;0.30;99.90
54126;DHT22;40360;52.992;6.796;2022-12-11T04:31:46;0.20;99.90
54126;DHT22;40360;52.992;6.796;2022-12-11T04:34:12;0.30;99.90
54126;DHT22;40360;52.992;6.796;2022-12-11T04:36:37;0.20;99.90
54126;DHT22;40360;52.992;6.796;2022-12-11T04:39:04;0.20;99.90
54126;DHT22;40360;52.992;6.796;2022-12-11T04:41:30;0.20;99.90
54126;DHT22;40360;52.992;6.796;2022-12-11T04:43:56;0.20;99.90
54126;DHT22;40360;52.992;6.796;2022-12-11T04:46:23;0.30;99.90
54126;DHT22;40360;52.992;6.796;2022-12-11T04:48:50;0.20;99.90
54126;DHT22;40360;52.992;6.796;2022-12-11T04:51:16;0.20;99.90
54126;DHT22;40360;52.992;6.796;2022-12-11T04:53:43;0.20;99.90
54126;DHT22;40360;52.992;6.796;2022-12-11T04:56:10;0.20;99.90
54126;DHT22;40360;52.992;6.796;2022-12-11T04:58:37;0.20;99.90
54126;DHT22;40360;52.992;6.796;2022-12-11T05:01:10;0.20;99.90
54126;DHT22;40360;52.992;6.796;2022-12-11T05:20:01;0.20;99.90
54126;DHT22;40360;52.992;6.796;2022-12-11T05:22:28;0.20;99.90
54126;DHT22;40360;52.992;6.796;2022-12-11T05:24:54;0.20;99.90
54126;DHT22;40360;52.992;6.796;2022-12-11T05:27:20;0.20;99.90
54126;DHT22;40360;52.992;6.796;2022-12-11T05:29:46;0.10;99.90
54126;DHT22;40360;52.992;6.796;2022-12-11T05:32:11;0.10;99.90
54126;DHT22;40360;52.992;6.796;2022-12-11T05:34:37;0.20;99.90
54126;DHT22;40360;52.992;6.796;2022-12-11T05:37:03;0.10;99.90
54126;DHT22;40360;52.992;6.796;2022-12-11T05:39:28;0.10;99.90
54126;DHT22;40360;52.992;6.796;2022-12-11T05:41:54;0.10;99.90
54126;DHT22;40360;52.992;6.796;2022-12-11T05:44:20;0.10;99.90
54126;DHT22;40360;52.992;6.796;2022-12-11T05:46:45;0.20;99.90
54126;DHT22;40360;52.992;6.796;2022-12-11T05:49:11;0.20;99.90
54126;DHT22;40360;52.992;6.796;2022-12-11T05:51:36;0.20;99.90
54126;DHT22;40360;52.992;6.796;2022-12-11T05:54:04;0.20;99.90
54126;DHT22;40360;52.992;6.796;2022-12-11T05:56:32;0.20;99.90
54126;DHT22;40360;52.992;6.796;2022-12-11T05:58:59;0.20;99.90
54126;DHT22;40360;52.992;6.796;2022-12-11T06:01:31;0.20;99.90
54126;DHT22;40360;52.992;6.796;2022-12-11T06:03:57;0.20;99.90
54126;DHT22;40360;52.992;6.796;2022-12-11T06:06:24;0.30;99.90
54126;DHT22;40360;52.992;6.796;2022-12-11T06:08:55;0.30;99.90
54126;DHT22;40360;52.992;6.796;2022-12-11T06:11:22;0.30;99.90
54126;DHT22;40360;52.992;6.796;2022-12-11T06:13:48;0.30;99.90
54126;DHT22;40360;52.992;6.796;2022-12-11T06:16:14;0.30;99.90
54126;DHT22;40360;52.992;6.796;2022-12-11T06:18:42;0.30;99.90
54126;DHT22;40360;52.992;6.796;2022-12-11T06:23:40;0.30;99.90
54126;DHT22;40360;52.992;6.796;2022-12-11T06:26:06;0.30;99.90
54126;DHT22;40360;52.992;6.796;2022-12-11T06:28:32;0.30;99.90
54126;DHT22;40360;52.992;6.796;2022-12-11T06:30:58;0.30;99.90
54126;DHT22;40360;52.992;6.796;2022-12-11T06:33:24;0.30;99.90
54126;DHT22;40360;52.992;6.796;2022-12-11T06:35:50;0.40;99.90
54126;DHT22;40360;52.992;6.796;2022-12-11T06:38:16;0.30;99.90
54126;DHT22;40360;52.992;6.796;2022-12-11T06:40:42;0.30;99.90
54126;DHT22;40360;52.992;6.796;2022-12-11T06:43:08;0.40;99.90
54126;DHT22;40360;52.992;6.796;2022-12-11T06:45:33;0.30;99.90
54126;DHT22;40360;52.992;6.796;2022-12-11T06:47:59;0.30;99.90
54126;DHT22;40360;52.992;6.796;2022-12-11T06:50:25;0.30;99.90
54126;DHT22;40360;52.992;6.796;2022-12-11T06:52:51;0.40;99.90
54126;DHT22;40360;52.992;6.796;2022-12-11T06:55:16;0.30;99.90
54126;DHT22;40360;52.992;6.796;2022-12-11T06:57:42;0.30;99.90
54126;DHT22;40360;52.992;6.796;2022-12-11T07:00:08;0.40;99.90
54126;DHT22;40360;52.992;6.796;2022-12-11T07:02:34;0.40;99.90
54126;DHT22;40360;52.992;6.796;2022-12-11T07:05:03;0.30;99.90
54126;DHT22;40360;52.992;6.796;2022-12-11T07:07:28;0.30;99.90
54126;DHT22;40360;52.992;6.796;2022-12-11T07:09:54;0.30;99.90
54126;DHT22;40360;52.992;6.796;2022-12-11T07:12:20;0.30;99.90
54126;DHT22;40360;52.992;6.796;2022-12-11T07:14:45;0.30;99.90
54126;DHT22;40360;52.992;6.796;2022-12-11T07:17:11;0.30;99.90
54126;DHT22;40360;52.992;6.796;2022-12-11T07:19:37;0.30;99.90
54126;DHT22;40360;52.992;6.796;2022-12-11T07:22:02;0.30;99.90
54126;DHT22;40360;52.992;6.796;2022-12-11T07:24:28;0.40;99.90
54126;DHT22;40360;52.992;6.796;2022-12-11T07:26:54;0.30;99.90
54126;DHT22;40360;52.992;6.796;2022-12-11T07:29:19;0.40;99.90
54126;DHT22;40360;52.992;6.796;2022-12-11T07:31:45;0.40;99.90
54126;DHT22;40360;52.992;6.796;2022-12-11T07:34:11;0.40;99.90
54126;DHT22;40360;52.992;6.796;2022-12-11T07:36:38;0.40;99.90
54126;DHT22;40360;52.992;6.796;2022-12-11T07:39:04;0.40;99.90
54126;DHT22;40360;52.992;6.796;2022-12-11T07:41:29;0.40;99.90
54126;DHT22;40360;52.992;6.796;2022-12-11T07:43:58;0.40;99.90
54126;DHT22;40360;52.992;6.796;2022-12-11T07:46:26;0.40;99.90
54126;DHT22;40360;52.992;6.796;2022-12-11T07:48:52;0.30;99.90
54126;DHT22;40360;52.992;6.796;2022-12-11T07:51:23;0.40;99.90
54126;DHT22;40360;52.992;6.796;2022-12-11T07:53:53;0.40;99.90
54126;DHT22;40360;52.992;6.796;2022-12-11T07:56:19;0.30;99.90
54126;DHT22;40360;52.992;6.796;2022-12-11T07:58:45;0.30;99.90
54126;DHT22;40360;52.992;6.796;2022-12-11T08:01:14;0.40;99.90
54126;DHT22;40360;52.992;6.796;2022-12-11T08:03:40;0.40;99.90
54126;DHT22;40360;52.992;6.796;2022-12-11T08:06:07;0.40;99.90
54126;DHT22;40360;52.992;6.796;2022-12-11T08:08:33;0.40;99.90
54126;DHT22;40360;52.992;6.796;2022-12-11T08:11:02;0.40;99.90
54126;DHT22;40360;52.992;6.796;2022-12-11T08:13:28;0.40;99.90
54126;DHT22;40360;52.992;6.796;2022-12-11T08:15:53;0.40;99.90
54126;DHT22;40360;52.992;6.796;2022-12-11T08:18:19;0.40;99.90
54126;DHT22;40360;52.992;6.796;2022-12-11T08:20:45;0.40;99.90
54126;DHT22;40360;52.992;6.796;2022-12-11T08:23:11;0.40;99.90
54126;DHT22;40360;52.992;6.796;2022-12-11T08:25:36;0.40;99.90
54126;DHT22;40360;52.992;6.796;2022-12-11T08:28:02;0.40;99.90
54126;DHT22;40360;52.992;6.796;2022-12-11T08:30:28;0.40;99.90
54126;DHT22;40360;52.992;6.796;2022-12-11T08:32:54;0.40;99.90
54126;DHT22;40360;52.992;6.796;2022-12-11T08:35:19;0.40;99.90
54126;DHT22;40360;52.992;6.796;2022-12-11T08:37:45;0.40;99.90
54126;DHT22;40360;52.992;6.796;2022-12-11T08:40:11;0.40;99.90
54126;DHT22;40360;52.992;6.796;2022-12-11T08:42:37;0.40;99.90
54126;DHT22;40360;52.992;6.796;2022-12-11T08:45:03;0.40;99.90
54126;DHT22;40360;52.992;6.796;2022-12-11T08:47:29;0.40;99.90
54126;DHT22;40360;52.992;6.796;2022-12-11T08:49:55;0.40;99.90
54126;DHT22;40360;52.992;6.796;2022-12-11T08:52:22;0.40;99.90
54126;DHT22;40360;52.992;6.796;2022-12-11T08:54:48;0.40;99.90
54126;DHT22;40360;52.992;6.796;2022-12-11T08:57:14;0.40;99.90
54126;DHT22;40360;52.992;6.796;2022-12-11T08:59:39;0.40;99.90
54126;DHT22;40360;52.992;6.796;2022-12-11T09:02:05;0.40;99.90
54126;DHT22;40360;52.992;6.796;2022-12-11T09:04:31;0.40;99.90
54126;DHT22;40360;52.992;6.796;2022-12-11T09:06:57;0.50;99.90
54126;DHT22;40360;52.992;6.796;2022-12-11T09:09:23;0.70;99.90
54126;DHT22;40360;52.992;6.796;2022-12-11T09:11:49;0.50;99.90
54126;DHT22;40360;52.992;6.796;2022-12-11T09:14:14;0.50;99.90
54126;DHT22;40360;52.992;6.796;2022-12-11T09:16:41;0.50;99.90
54126;DHT22;40360;52.992;6.796;2022-12-11T09:19:10;0.50;99.90
54126;DHT22;40360;52.992;6.796;2022-12-11T09:21:37;0.50;99.90
54126;DHT22;40360;52.992;6.796;2022-12-11T09:24:03;0.60;99.90
54126;DHT22;40360;52.992;6.796;2022-12-11T09:26:29;0.60;99.90
54126;DHT22;40360;52.992;6.796;2022-12-11T09:28:55;0.60;99.90
54126;DHT22;40360;52.992;6.796;2022-12-11T09:31:29;0.60;99.90
54126;DHT22;40360;52.992;6.796;2022-12-11T09:33:58;0.60;99.90
54126;DHT22;40360;52.992;6.796;2022-12-11T09:36:25;0.60;99.90
54126;DHT22;40360;52.992;6.796;2022-12-11T09:38:51;0.70;99.90
54126;DHT22;40360;52.992;6.796;2022-12-11T09:46:18;0.70;99.90
54126;DHT22;40360;52.992;6.796;2022-12-11T09:48:47;0.70;99.90
54126;DHT22;40360;52.992;6.796;2022-12-11T09:51:22;0.70;99.90
54126;DHT22;40360;52.992;6.796;2022-12-11T09:53:51;0.60;99.90
54126;DHT22;40360;52.992;6.796;2022-12-11T09:56:25;0.60;99.90
54126;DHT22;40360;52.992;6.796;2022-12-11T09:59:14;0.60;99.90
54126;DHT22;40360;52.992;6.796;2022-12-11T10:04:49;0.60;99.90
54126;DHT22;40360;52.992;6.796;2022-12-11T10:07:33;0.70;99.90
54126;DHT22;40360;52.992;6.796;2022-12-11T10:13:05;0.70;99.90
54126;DHT22;40360;52.992;6.796;2022-12-11T10:15:53;0.70;99.90
54126;DHT22;40360;52.992;6.796;2022-12-11T10:18:22;0.80;99.90
54126;DHT22;40360;52.992;6.796;2022-12-11T10:20:51;0.80;99.90
54126;DHT22;40360;52.992;6.796;2022-12-11T10:23:30;0.80;99.90
54126;DHT22;40360;52.992;6.796;2022-12-11T10:26:20;0.80;99.90
54126;DHT22;40360;52.992;6.796;2022-12-11T10:28:46;0.80;99.90
54126;DHT22;40360;52.992;6.796;2022-12-11T10:34:10;0.80;99.90
54126;DHT22;40360;52.992;6.796;2022-12-11T10:36:39;0.80;99.90
54126;DHT22;40360;52.992;6.796;2022-12-11T10:39:20;0.80;99.90
54126;DHT22;40360;52.992;6.796;2022-12-11T10:41:48;0.70;99.90
54126;DHT22;40360;52.992;6.796;2022-12-11T10:44:16;0.80;99.90
54126;DHT22;40360;52.992;6.796;2022-12-11T10:46:43;0.80;99.90
54126;DHT22;40360;52.992;6.796;2022-12-11T10:49:22;0.80;99.90
54126;DHT22;40360;52.992;6.796;2022-12-11T10:51:48;0.80;99.90
54126;DHT22;40360;52.992;6.796;2022-12-11T10:56:58;0.80;99.90
54126;DHT22;40360;52.992;6.796;2022-12-11T10:59:44;0.80;99.90
54126;DHT22;40360;52.992;6.796;2022-12-11T11:02:26;0.80;99.90
54126;DHT22;40360;52.992;6.796;2022-12-11T11:04:54;0.80;99.90
54126;DHT22;40360;52.992;6.796;2022-12-11T11:07:28;0.80;99.90
54126;DHT22;40360;52.992;6.796;2022-12-11T11:12:44;0.80;99.90
54126;DHT22;40360;52.992;6.796;2022-12-11T11:15:24;0.80;99.90
54126;DHT22;40360;52.992;6.796;2022-12-11T11:17:52;0.80;99.90
54126;DHT22;40360;52.992;6.796;2022-12-11T11:20:24;0.80;99.90
54126;DHT22;40360;52.992;6.796;2022-12-11T11:22:52;0.80;99.90
54126;DHT22;40360;52.992;6.796;2022-12-11T11:25:23;0.80;99.90
54126;DHT22;40360;52.992;6.796;2022-12-11T11:27:55;0.80;99.90
54126;DHT22;40360;52.992;6.796;2022-12-11T11:30:23;0.80;99.90
54126;DHT22;40360;52.992;6.796;2022-12-11T11:32:51;0.80;99.90
54126;DHT22;40360;52.992;6.796;2022-12-11T11:35:22;0.80;99.90
54126;DHT22;40360;52.992;6.796;2022-12-11T11:43:47;0.80;99.90
54126;DHT22;40360;52.992;6.796;2022-12-11T11:46:25;0.80;99.90
54126;DHT22;40360;52.992;6.796;2022-12-11T11:51:51;0.80;99.90
54126;DHT22;40360;52.992;6.796;2022-12-11T11:54:29;0.90;99.90
54126;DHT22;40360;52.992;6.796;2022-12-11T11:56:56;0.80;99.90
54126;DHT22;40360;52.992;6.796;2022-12-11T11:59:33;0.90;99.90
54126;DHT22;40360;52.992;6.796;2022-12-11T12:02:00;0.90;99.90
54126;DHT22;40360;52.992;6.796;2022-12-11T12:04:33;0.90;99.90
54126;DHT22;40360;52.992;6.796;2022-12-11T12:09:58;0.90;99.90
54126;DHT22;40360;52.992;6.796;2022-12-11T12:12:48;0.90;99.90
54126;DHT22;40360;52.992;6.796;2022-12-11T12:18:16;0.90;99.90
54126;DHT22;40360;52.992;6.796;2022-12-11T12:32:36;0.90;99.90
54126;DHT22;40360;52.992;6.796;2022-12-11T12:35:29;0.90;99.90
54126;DHT22;40360;52.992;6.796;2022-12-11T12:37:57;0.90;99.90
54126;DHT22;40360;52.992;6.796;2022-12-11T12:45:43;0.90;99.90
54126;DHT22;40360;52.992;6.796;2022-12-11T12:48:12;0.90;99.90
54126;DHT22;40360;52.992;6.796;2022-12-11T12:50:42;0.90;99.90
54126;DHT22;40360;52.992;6.796;2022-12-11T12:53:15;1.00;99.90
54126;DHT22;40360;52.992;6.796;2022-12-11T12:55:42;0.90;99.90
54126;DHT22;40360;52.992;6.796;2022-12-11T13:00:52;1.00;99.90
54126;DHT22;40360;52.992;6.796;2022-12-11T13:03:20;1.00;99.90
54126;DHT22;40360;52.992;6.796;2022-12-11T13:05:59;0.90;99.90
54126;DHT22;40360;52.992;6.796;2022-12-11T13:08:28;0.90;99.90
54126;DHT22;40360;52.992;6.796;2022-12-11T13:11:01;0.90;99.90
54126;DHT22;40360;52.992;6.796;2022-12-11T13:13:40;1.00;99.90
54126;DHT22;40360;52.992;6.796;2022-12-11T13:18:43;1.00;99.90
54126;DHT22;40360;52.992;6.796;2022-12-11T13:21:31;1.00;99.90
54126;DHT22;40360;52.992;6.796;2022-12-11T13:26:44;1.00;99.90
54126;DHT22;40360;52.992;6.796;2022-12-11T13:34:40;0.90;99.90
54126;DHT22;40360;52.992;6.796;2022-12-11T13:37:32;1.00;99.90
54126;DHT22;40360;52.992;6.796;2022-12-11T13:40:02;0.90;99.90
54126;DHT22;40360;52.992;6.796;2022-12-11T13:44:58;1.00;99.90
54126;DHT22;40360;52.992;6.796;2022-12-11T13:47:25;0.90;99.90
54126;DHT22;40360;52.992;6.796;2022-12-11T13:50:04;1.00;99.90
54126;DHT22;40360;52.992;6.796;2022-12-11T13:52:31;1.00;99.90
54126;DHT22;40360;52.992;6.796;2022-12-11T13:54:57;0.90;99.90
54126;DHT22;40360;52.992;6.796;2022-12-11T13:57:26;1.00;99.90
54126;DHT22;40360;52.992;6.796;2022-12-11T13:59:56;1.00;99.90
54126;DHT22;40360;52.992;6.796;2022-12-11T14:02:29;1.00;99.90
54126;DHT22;40360;52.992;6.796;2022-12-11T14:05:06;1.00;99.90
54126;DHT22;40360;52.992;6.796;2022-12-11T14:07:37;1.00;99.90
54126;DHT22;40360;52.992;6.796;2022-12-11T14:15:14;1.00;99.90
54126;DHT22;40360;52.992;6.796;2022-12-11T14:17:42;1.00;99.90
54126;DHT22;40360;52.992;6.796;2022-12-11T14:20:20;1.00;99.90
54126;DHT22;40360;52.992;6.796;2022-12-11T14:22:47;1.00;99.90
54126;DHT22;40360;52.992;6.796;2022-12-11T14:25:23;1.00;99.90
54126;DHT22;40360;52.992;6.796;2022-12-11T14:27:50;1.00;99.90
54126;DHT22;40360;52.992;6.796;2022-12-11T14:30:27;1.00;99.90
54126;DHT22;40360;52.992;6.796;2022-12-11T14:32:57;0.90;99.90
54126;DHT22;40360;52.992;6.796;2022-12-11T14:35:29;0.90;99.90
54126;DHT22;40360;52.992;6.796;2022-12-11T14:37:57;0.90;99.90
54126;DHT22;40360;52.992;6.796;2022-12-11T14:40:29;0.90;99.90
54126;DHT22;40360;52.992;6.796;2022-12-11T14:42:58;0.90;99.90
54126;DHT22;40360;52.992;6.796;2022-12-11T14:45:39;0.90;99.90
54126;DHT22;40360;52.992;6.796;2022-12-11T14:48:13;0.90;99.90
54126;DHT22;40360;52.992;6.796;2022-12-11T14:50:43;0.90;99.90
54126;DHT22;40360;52.992;6.796;2022-12-11T14:53:16;0.90;99.90
54126;DHT22;40360;52.992;6.796;2022-12-11T14:55:47;0.80;99.90
54126;DHT22;40360;52.992;6.796;2022-12-11T15:00:41;0.90;99.90
54126;DHT22;40360;52.992;6.796;2022-12-11T15:06:20;0.90;99.90
54126;DHT22;40360;52.992;6.796;2022-12-11T15:08:47;0.90;99.90
54126;DHT22;40360;52.992;6.796;2022-12-11T15:11:14;0.90;99.90
54126;DHT22;40360;52.992;6.796;2022-12-11T15:13:55;0.90;99.90
54126;DHT22;40360;52.992;6.796;2022-12-11T15:16:23;0.90;99.90
54126;DHT22;40360;52.992;6.796;2022-12-11T15:18:51;0.90;99.90
54126;DHT22;40360;52.992;6.796;2022-12-11T15:21:18;0.90;99.90
54126;DHT22;40360;52.992;6.796;2022-12-11T15:23:48;0.90;99.90
54126;DHT22;40360;52.992;6.796;2022-12-11T15:26:15;0.90;99.90
54126;DHT22;40360;52.992;6.796;2022-12-11T15:28:40;0.90;99.90
54126;DHT22;40360;52.992;6.796;2022-12-11T15:33:47;0.90;99.90
54126;DHT22;40360;52.992;6.796;2022-12-11T15:36:32;0.90;99.90
54126;DHT22;40360;52.992;6.796;2022-12-11T15:38:59;0.90;99.90
54126;DHT22;40360;52.992;6.796;2022-12-11T15:41:25;1.00;99.90
54126;DHT22;40360;52.992;6.796;2022-12-11T15:44:00;1.00;99.90
54126;DHT22;40360;52.992;6.796;2022-12-11T15:46:26;1.00;99.90
54126;DHT22;40360;52.992;6.796;2022-12-11T15:48:52;0.90;99.90
54126;DHT22;40360;52.992;6.796;2022-12-11T15:51:18;0.90;99.90
54126;DHT22;40360;52.992;6.796;2022-12-11T15:53:43;1.00;99.90
54126;DHT22;40360;52.992;6.796;2022-12-11T15:56:12;1.00;99.90
54126;DHT22;40360;52.992;6.796;2022-12-11T15:58:39;1.00;99.90
54126;DHT22;40360;52.992;6.796;2022-12-11T16:01:06;1.00;99.90
54126;DHT22;40360;52.992;6.796;2022-12-11T16:03:31;1.00;99.90
54126;DHT22;40360;52.992;6.796;2022-12-11T16:05:57;1.00;99.90
54126;DHT22;40360;52.992;6.796;2022-12-11T16:08:23;1.00;99.90
54126;DHT22;40360;52.992;6.796;2022-12-11T16:10:51;1.00;99.90
54126;DHT22;40360;52.992;6.796;2022-12-11T16:13:17;1.00;99.90
54126;DHT22;40360;52.992;6.796;2022-12-11T16:15:44;1.00;99.90
54126;DHT22;40360;52.992;6.796;2022-12-11T16:18:16;1.00;99.90
54126;DHT22;40360;52.992;6.796;2022-12-11T16:20:44;1.00;99.90
54126;DHT22;40360;52.992;6.796;2022-12-11T16:23:10;1.00;99.90
54126;DHT22;40360;52.992;6.796;2022-12-11T16:25:37;1.00;99.90
54126;DHT22;40360;52.992;6.796;2022-12-11T16:28:04;1.00;99.90
54126;DHT22;40360;52.992;6.796;2022-12-11T16:30:30;1.00;99.90
54126;DHT22;40360;52.992;6.796;2022-12-11T16:32:58;1.10;99.90
54126;DHT22;40360;52.992;6.796;2022-12-11T16:35:24;1.00;99.90
54126;DHT22;40360;52.992;6.796;2022-12-11T16:37:51;1.00;99.90
54126;DHT22;40360;52.992;6.796;2022-12-11T16:40:17;1.10;99.90
54126;DHT22;40360;52.992;6.796;2022-12-11T16:42:43;1.10;99.90
54126;DHT22;40360;52.992;6.796;2022-12-11T16:45:18;1.10;99.90
54126;DHT22;40360;52.992;6.796;2022-12-11T16:47:44;1.10;99.90
54126;DHT22;40360;52.992;6.796;2022-12-11T16:50:11;1.00;99.90
54126;DHT22;40360;52.992;6.796;2022-12-11T16:52:38;1.00;99.90
54126;DHT22;40360;52.992;6.796;2022-12-11T16:55:04;1.00;99.90
54126;DHT22;40360;52.992;6.796;2022-12-11T16:57:30;1.00;99.90
54126;DHT22;40360;52.992;6.796;2022-12-11T16:59:56;1.00;99.90
54126;DHT22;40360;52.992;6.796;2022-12-11T17:02:21;1.00;99.90
54126;DHT22;40360;52.992;6.796;2022-12-11T17:04:47;1.00;99.90
54126;DHT22;40360;52.992;6.796;2022-12-11T17:07:13;1.00;99.90
54126;DHT22;40360;52.992;6.796;2022-12-11T17:09:40;1.00;99.90
54126;DHT22;40360;52.992;6.796;2022-12-11T17:12:06;1.00;99.90
54126;DHT22;40360;52.992;6.796;2022-12-11T17:14:31;1.00;99.90
54126;DHT22;40360;52.992;6.796;2022-12-11T17:16:57;1.00;99.90
54126;DHT22;40360;52.992;6.796;2022-12-11T17:19:23;1.00;99.90
54126;DHT22;40360;52.992;6.796;2022-12-11T17:21:48;1.00;99.90
54126;DHT22;40360;52.992;6.796;2022-12-11T17:24:15;0.90;99.90
54126;DHT22;40360;52.992;6.796;2022-12-11T17:26:41;1.00;99.90
54126;DHT22;40360;52.992;6.796;2022-12-11T17:29:08;0.90;99.90
54126;DHT22;40360;52.992;6.796;2022-12-11T17:31:34;0.90;99.90
54126;DHT22;40360;52.992;6.796;2022-12-11T17:34:00;0.90;99.90
54126;DHT22;40360;52.992;6.796;2022-12-11T17:36:26;0.90;99.90
54126;DHT22;40360;52.992;6.796;2022-12-11T17:38:52;0.90;99.90
54126;DHT22;40360;52.992;6.796;2022-12-11T17:41:18;0.90;99.90
54126;DHT22;40360;52.992;6.796;2022-12-11T17:43:45;0.90;99.90
54126;DHT22;40360;52.992;6.796;2022-12-11T17:46:11;0.90;99.90
54126;DHT22;40360;52.992;6.796;2022-12-11T17:48:38;0.90;99.90
54126;DHT22;40360;52.992;6.796;2022-12-11T17:51:06;0.90;99.90
54126;DHT22;40360;52.992;6.796;2022-12-11T17:53:32;0.90;99.90